Denver, Colorado
Current Conditions -  °F | °C
As of 7:58 PM on Monday 22 Dec 2014 (Local Time) from KBKF Reporting Station
Broken Clouds Broken Clouds  
Wind Chill: 17°   Ceiling: 6000
Heat Index: 28°   Visibility: 10mi
Dew Point: 19°   Wind: 13mph
Humidity: 71%   Direction: 350°N
Pressure: 29.82"   Gusts: 18mph
Location:  39.74°N, 104.99°W
Report Text: KBKF 230258Z 35011G16KT 10SM BKN060 BKN110 M02/M07 A2982 RMK AO2A SLP115 T10241070 52024
Loading
Personal Weather Stations






























Interactive Weather Map New forecast layout! Learn more

10-Day Weather Forecast

Advertisements
Track Severe Weather on mobile